sensor_id;sensor_type;location;lat;lon;timestamp;temperature;humidity
59703;DHT22;45570;48.782;8.332;2023-04-16T07:37:58;8.50;99.90
59703;DHT22;45570;48.782;8.332;2023-04-16T07:40:27;8.50;99.90
59703;DHT22;45570;48.782;8.332;2023-04-16T07:42:57;8.40;99.90
59703;DHT22;45570;48.782;8.332;2023-04-16T07:45:26;8.50;99.90
59703;DHT22;45570;48.782;8.332;2023-04-16T07:47:55;8.50;99.90
59703;DHT22;45570;48.782;8.332;2023-04-16T07:50:24;8.60;99.90
59703;DHT22;45570;48.782;8.332;2023-04-16T07:52:53;8.60;99.90
59703;DHT22;45570;48.782;8.332;2023-04-16T07:55:24;8.60;99.90
59703;DHT22;45570;48.782;8.332;2023-04-16T07:57:53;8.70;99.90
59703;DHT22;45570;48.782;8.332;2023-04-16T08:00:25;8.70;99.90
59703;DHT22;45570;48.782;8.332;2023-04-16T08:02:54;8.70;99.90
59703;DHT22;45570;48.782;8.332;2023-04-16T08:05:24;8.80;99.90
59703;DHT22;45570;48.782;8.332;2023-04-16T08:07:53;8.80;99.90
59703;DHT22;45570;48.782;8.332;2023-04-16T08:10:24;8.80;99.90
59703;DHT22;45570;48.782;8.332;2023-04-16T08:12:53;8.90;99.90
59703;DHT22;45570;48.782;8.332;2023-04-16T08:15:23;8.90;99.90
59703;DHT22;45570;48.782;8.332;2023-04-16T08:17:52;8.90;99.90
59703;DHT22;45570;48.782;8.332;2023-04-16T08:20:21;8.90;99.90
59703;DHT22;45570;48.782;8.332;2023-04-16T08:22:50;8.90;99.90
59703;DHT22;45570;48.782;8.332;2023-04-16T08:25:21;9.00;99.90
59703;DHT22;45570;48.782;8.332;2023-04-16T08:27:52;9.00;99.90
59703;DHT22;45570;48.782;8.332;2023-04-16T08:30:21;9.00;99.90
59703;DHT22;45570;48.782;8.332;2023-04-16T08:32:51;9.00;99.90
59703;DHT22;45570;48.782;8.332;2023-04-16T08:35:21;9.00;99.90
59703;DHT22;45570;48.782;8.332;2023-04-16T08:37:50;9.00;99.90
59703;DHT22;45570;48.782;8.332;2023-04-16T08:40:20;9.00;99.90
59703;DHT22;45570;48.782;8.332;2023-04-16T08:42:54;9.00;99.90
59703;DHT22;45570;48.782;8.332;2023-04-16T08:45:24;9.10;99.90
59703;DHT22;45570;48.782;8.332;2023-04-16T08:47:54;9.10;99.90
59703;DHT22;45570;48.782;8.332;2023-04-16T08:50:24;9.10;99.90
59703;DHT22;45570;48.782;8.332;2023-04-16T08:52:57;9.10;99.90
59703;DHT22;45570;48.782;8.332;2023-04-16T08:55:34;9.10;99.90
59703;DHT22;45570;48.782;8.332;2023-04-16T08:58:08;9.10;99.90
59703;DHT22;45570;48.782;8.332;2023-04-16T09:00:38;9.10;99.90
59703;DHT22;45570;48.782;8.332;2023-04-16T09:03:09;9.20;99.90
59703;DHT22;45570;48.782;8.332;2023-04-16T09:05:39;9.20;99.90
59703;DHT22;45570;48.782;8.332;2023-04-16T09:08:09;9.20;99.90
59703;DHT22;45570;48.782;8.332;2023-04-16T09:10:39;9.30;99.90
59703;DHT22;45570;48.782;8.332;2023-04-16T09:13:10;9.30;99.90
59703;DHT22;45570;48.782;8.332;2023-04-16T09:15:40;9.30;99.90
59703;DHT22;45570;48.782;8.332;2023-04-16T09:18:10;9.30;99.90
59703;DHT22;45570;48.782;8.332;2023-04-16T09:20:39;9.30;99.90
59703;DHT22;45570;48.782;8.332;2023-04-16T09:23:08;9.40;99.90
59703;DHT22;45570;48.782;8.332;2023-04-16T09:25:38;9.50;99.90
59703;DHT22;45570;48.782;8.332;2023-04-16T09:28:09;9.50;99.90
59703;DHT22;45570;48.782;8.332;2023-04-16T09:30:38;9.60;99.90
59703;DHT22;45570;48.782;8.332;2023-04-16T09:33:12;9.60;99.90
59703;DHT22;45570;48.782;8.332;2023-04-16T09:35:46;9.70;99.90
59703;DHT22;45570;48.782;8.332;2023-04-16T09:38:16;9.60;99.90
59703;DHT22;45570;48.782;8.332;2023-04-16T09:40:45;9.70;99.90
59703;DHT22;45570;48.782;8.332;2023-04-16T09:43:17;9.70;99.90
59703;DHT22;45570;48.782;8.332;2023-04-16T09:45:50;9.70;99.90
59703;DHT22;45570;48.782;8.332;2023-04-16T09:48:28;9.70;99.90
59703;DHT22;45570;48.782;8.332;2023-04-16T09:50:58;9.70;99.90
59703;DHT22;45570;48.782;8.332;2023-04-16T09:53:28;9.60;99.90
59703;DHT22;45570;48.782;8.332;2023-04-16T09:55:59;9.70;99.90
59703;DHT22;45570;48.782;8.332;2023-04-16T09:58:30;9.70;99.90
59703;DHT22;45570;48.782;8.332;2023-04-16T10:01:00;9.60;99.90
59703;DHT22;45570;48.782;8.332;2023-04-16T10:03:30;9.60;99.90
59703;DHT22;45570;48.782;8.332;2023-04-16T10:06:02;9.60;99.90
59703;DHT22;45570;48.782;8.332;2023-04-16T10:08:34;9.70;99.90
59703;DHT22;45570;48.782;8.332;2023-04-16T10:11:04;9.70;99.90
59703;DHT22;45570;48.782;8.332;2023-04-16T10:13:34;9.70;99.90
59703;DHT22;45570;48.782;8.332;2023-04-16T10:16:04;9.70;99.90
59703;DHT22;45570;48.782;8.332;2023-04-16T10:18:35;9.70;99.90
59703;DHT22;45570;48.782;8.332;2023-04-16T10:21:05;9.70;99.90
59703;DHT22;45570;48.782;8.332;2023-04-16T10:23:35;9.70;99.90
59703;DHT22;45570;48.782;8.332;2023-04-16T10:26:30;9.70;99.90
59703;DHT22;45570;48.782;8.332;2023-04-16T10:29:09;9.70;99.90
59703;DHT22;45570;48.782;8.332;2023-04-16T10:31:40;9.70;99.90
59703;DHT22;45570;48.782;8.332;2023-04-16T10:34:10;9.60;99.90
59703;DHT22;45570;48.782;8.332;2023-04-16T10:36:40;9.60;99.90
59703;DHT22;45570;48.782;8.332;2023-04-16T10:39:10;9.60;99.90
59703;DHT22;45570;48.782;8.332;2023-04-16T10:41:44;9.60;99.90
59703;DHT22;45570;48.782;8.332;2023-04-16T10:44:16;9.60;99.90
59703;DHT22;45570;48.782;8.332;2023-04-16T10:46:47;9.60;99.90
59703;DHT22;45570;48.782;8.332;2023-04-16T10:49:18;9.70;99.90
59703;DHT22;45570;48.782;8.332;2023-04-16T10:51:54;9.70;99.90
59703;DHT22;45570;48.782;8.332;2023-04-16T10:54:25;9.70;99.90
59703;DHT22;45570;48.782;8.332;2023-04-16T10:56:56;9.70;99.90
59703;DHT22;45570;48.782;8.332;2023-04-16T10:59:31;9.70;99.90
59703;DHT22;45570;48.782;8.332;2023-04-16T11:02:06;9.70;99.90
59703;DHT22;45570;48.782;8.332;2023-04-16T11:04:37;9.70;99.90
59703;DHT22;45570;48.782;8.332;2023-04-16T11:07:14;9.70;99.90
59703;DHT22;45570;48.782;8.332;2023-04-16T11:09:45;9.70;99.90
59703;DHT22;45570;48.782;8.332;2023-04-16T11:12:15;9.70;99.90
59703;DHT22;45570;48.782;8.332;2023-04-16T11:14:49;9.70;99.90
59703;DHT22;45570;48.782;8.332;2023-04-16T11:17:18;9.70;99.90
59703;DHT22;45570;48.782;8.332;2023-04-16T11:19:48;9.80;99.90
59703;DHT22;45570;48.782;8.332;2023-04-16T11:22:20;9.80;99.90
59703;DHT22;45570;48.782;8.332;2023-04-16T11:24:53;9.90;99.90
59703;DHT22;45570;48.782;8.332;2023-04-16T11:27:23;9.80;99.90
59703;DHT22;45570;48.782;8.332;2023-04-16T11:30:00;9.90;99.90
59703;DHT22;45570;48.782;8.332;2023-04-16T11:32:31;9.90;99.90
59703;DHT22;45570;48.782;8.332;2023-04-16T11:35:02;9.90;99.90
59703;DHT22;45570;48.782;8.332;2023-04-16T11:37:32;9.90;99.90
59703;DHT22;45570;48.782;8.332;2023-04-16T11:40:02;10.00;99.90
59703;DHT22;45570;48.782;8.332;2023-04-16T11:42:34;10.00;99.90
59703;DHT22;45570;48.782;8.332;2023-04-16T11:45:07;10.00;99.90
59703;DHT22;45570;48.782;8.332;2023-04-16T11:47:44;9.90;99.90
59703;DHT22;45570;48.782;8.332;2023-04-16T11:50:18;10.00;99.90
59703;DHT22;45570;48.782;8.332;2023-04-16T11:52:48;9.90;99.90
59703;DHT22;45570;48.782;8.332;2023-04-16T11:55:17;9.90;99.90
59703;DHT22;45570;48.782;8.332;2023-04-16T11:57:47;9.90;99.90
59703;DHT22;45570;48.782;8.332;2023-04-16T12:00:19;9.90;99.90
59703;DHT22;45570;48.782;8.332;2023-04-16T12:02:52;9.80;99.90
59703;DHT22;45570;48.782;8.332;2023-04-16T12:05:29;9.80;99.90
59703;DHT22;45570;48.782;8.332;2023-04-16T12:07:59;9.90;99.90
59703;DHT22;45570;48.782;8.332;2023-04-16T12:10:30;9.90;99.90
59703;DHT22;45570;48.782;8.332;2023-04-16T12:13:11;9.90;99.90
59703;DHT22;45570;48.782;8.332;2023-04-16T12:15:46;9.90;99.90
59703;DHT22;45570;48.782;8.332;2023-04-16T12:18:16;9.90;99.90
59703;DHT22;45570;48.782;8.332;2023-04-16T12:20:45;9.90;99.90
59703;DHT22;45570;48.782;8.332;2023-04-16T12:23:25;9.90;99.90
59703;DHT22;45570;48.782;8.332;2023-04-16T12:25:54;9.80;99.90
59703;DHT22;45570;48.782;8.332;2023-04-16T12:28:27;9.80;99.90
59703;DHT22;45570;48.782;8.332;2023-04-16T12:30:59;9.70;99.90
59703;DHT22;45570;48.782;8.332;2023-04-16T12:33:29;9.70;99.90
59703;DHT22;45570;48.782;8.332;2023-04-16T12:35:58;9.70;99.90
59703;DHT22;45570;48.782;8.332;2023-04-16T12:38:29;9.70;99.90
59703;DHT22;45570;48.782;8.332;2023-04-16T12:40:58;9.70;99.90
59703;DHT22;45570;48.782;8.332;2023-04-16T12:43:28;9.70;99.90
59703;DHT22;45570;48.782;8.332;2023-04-16T12:45:59;9.70;99.90
59703;DHT22;45570;48.782;8.332;2023-04-16T12:48:30;9.80;99.90
59703;DHT22;45570;48.782;8.332;2023-04-16T12:51:00;9.80;99.90
59703;DHT22;45570;48.782;8.332;2023-04-16T12:53:29;9.80;99.90
59703;DHT22;45570;48.782;8.332;2023-04-16T12:55:58;9.70;99.90
59703;DHT22;45570;48.782;8.332;2023-04-16T12:58:27;9.80;99.90
59703;DHT22;45570;48.782;8.332;2023-04-16T13:00:59;9.80;99.90
59703;DHT22;45570;48.782;8.332;2023-04-16T13:03:28;9.70;99.90
59703;DHT22;45570;48.782;8.332;2023-04-16T13:05:57;9.70;99.90
59703;DHT22;45570;48.782;8.332;2023-04-16T13:08:29;9.70;99.90
59703;DHT22;45570;48.782;8.332;2023-04-16T13:10:59;9.70;99.90
59703;DHT22;45570;48.782;8.332;2023-04-16T13:13:28;9.80;99.90
59703;DHT22;45570;48.782;8.332;2023-04-16T13:16:01;9.80;99.90
59703;DHT22;45570;48.782;8.332;2023-04-16T13:18:36;9.80;99.90
59703;DHT22;45570;48.782;8.332;2023-04-16T13:21:07;9.80;99.90
59703;DHT22;45570;48.782;8.332;2023-04-16T13:23:36;9.90;99.90
59703;DHT22;45570;48.782;8.332;2023-04-16T13:26:05;9.90;99.90
59703;DHT22;45570;48.782;8.332;2023-04-16T13:28:36;10.00;99.90
59703;DHT22;45570;48.782;8.332;2023-04-16T13:31:07;10.00;99.90
59703;DHT22;45570;48.782;8.332;2023-04-16T13:33:37;9.90;99.90
59703;DHT22;45570;48.782;8.332;2023-04-16T13:36:06;9.90;99.90
59703;DHT22;45570;48.782;8.332;2023-04-16T13:38:35;9.80;99.90
59703;DHT22;45570;48.782;8.332;2023-04-16T13:41:05;9.70;99.90
59703;DHT22;45570;48.782;8.332;2023-04-16T13:43:34;9.70;99.90
59703;DHT22;45570;48.782;8.332;2023-04-16T13:46:03;9.80;99.90
59703;DHT22;45570;48.782;8.332;2023-04-16T13:48:34;9.80;99.90
59703;DHT22;45570;48.782;8.332;2023-04-16T13:51:03;9.70;99.90
59703;DHT22;45570;48.782;8.332;2023-04-16T13:53:32;9.70;99.90
59703;DHT22;45570;48.782;8.332;2023-04-16T13:56:01;9.60;99.90
59703;DHT22;45570;48.782;8.332;2023-04-16T13:58:31;9.70;99.90
59703;DHT22;45570;48.782;8.332;2023-04-16T14:01:00;9.60;99.90
59703;DHT22;45570;48.782;8.332;2023-04-16T14:03:30;9.70;99.90
59703;DHT22;45570;48.782;8.332;2023-04-16T14:06:04;9.60;99.90
59703;DHT22;45570;48.782;8.332;2023-04-16T14:08:33;9.70;99.90
59703;DHT22;45570;48.782;8.332;2023-04-16T14:11:03;9.70;99.90
59703;DHT22;45570;48.782;8.332;2023-04-16T14:13:32;9.70;99.90
59703;DHT22;45570;48.782;8.332;2023-04-16T14:16:02;9.60;99.90
59703;DHT22;45570;48.782;8.332;2023-04-16T14:18:31;9.60;99.90
59703;DHT22;45570;48.782;8.332;2023-04-16T14:21:00;9.60;99.90
59703;DHT22;45570;48.782;8.332;2023-04-16T14:23:31;9.60;99.90
59703;DHT22;45570;48.782;8.332;2023-04-16T14:26:00;9.60;99.90
59703;DHT22;45570;48.782;8.332;2023-04-16T14:28:30;9.60;99.90
59703;DHT22;45570;48.782;8.332;2023-04-16T14:30:59;9.60;99.90
59703;DHT22;45570;48.782;8.332;2023-04-16T14:33:28;9.60;99.90
59703;DHT22;45570;48.782;8.332;2023-04-16T14:35:59;9.50;99.90
59703;DHT22;45570;48.782;8.332;2023-04-16T14:38:31;9.60;99.90
59703;DHT22;45570;48.782;8.332;2023-04-16T14:41:01;9.50;99.90
59703;DHT22;45570;48.782;8.332;2023-04-16T14:43:30;9.70;99.90
59703;DHT22;45570;48.782;8.332;2023-04-16T14:45:59;9.60;99.90
59703;DHT22;45570;48.782;8.332;2023-04-16T14:48:28;9.50;99.90
59703;DHT22;45570;48.782;8.332;2023-04-16T14:50:58;9.50;99.90
59703;DHT22;45570;48.782;8.332;2023-04-16T14:53:27;9.50;99.90
59703;DHT22;45570;48.782;8.332;2023-04-16T14:55:58;9.50;99.90
59703;DHT22;45570;48.782;8.332;2023-04-16T14:58:28;9.40;99.90
59703;DHT22;45570;48.782;8.332;2023-04-16T15:00:58;9.50;99.90
59703;DHT22;45570;48.782;8.332;2023-04-16T15:03:28;9.50;99.90
59703;DHT22;45570;48.782;8.332;2023-04-16T15:05:57;9.50;99.90
59703;DHT22;45570;48.782;8.332;2023-04-16T15:08:26;9.50;99.90
59703;DHT22;45570;48.782;8.332;2023-04-16T15:10:56;9.50;99.90
59703;DHT22;45570;48.782;8.332;2023-04-16T15:13:26;9.50;99.90
59703;DHT22;45570;48.782;8.332;2023-04-16T15:16:00;9.50;99.90
59703;DHT22;45570;48.782;8.332;2023-04-16T15:18:29;9.50;99.90
59703;DHT22;45570;48.782;8.332;2023-04-16T15:20:58;9.50;99.90
59703;DHT22;45570;48.782;8.332;2023-04-16T15:23:27;9.50;99.90
59703;DHT22;45570;48.782;8.332;2023-04-16T15:25:57;9.50;99.90
59703;DHT22;45570;48.782;8.332;2023-04-16T15:28:28;9.50;99.90
59703;DHT22;45570;48.782;8.332;2023-04-16T15:30:57;9.50;99.90
59703;DHT22;45570;48.782;8.332;2023-04-16T15:33:26;9.50;99.90
59703;DHT22;45570;48.782;8.332;2023-04-16T15:35:55;9.50;99.90
59703;DHT22;45570;48.782;8.332;2023-04-16T15:38:25;9.50;99.90
59703;DHT22;45570;48.782;8.332;2023-04-16T15:40:57;9.50;99.90
59703;DHT22;45570;48.782;8.332;2023-04-16T15:43:28;9.50;99.90
59703;DHT22;45570;48.782;8.332;2023-04-16T15:45:58;9.50;99.90
59703;DHT22;45570;48.782;8.332;2023-04-16T15:48:27;9.50;99.90
59703;DHT22;45570;48.782;8.332;2023-04-16T15:50:56;9.50;99.90
59703;DHT22;45570;48.782;8.332;2023-04-16T15:53:26;9.50;99.90
59703;DHT22;45570;48.782;8.332;2023-04-16T15:55:55;9.50;99.90
59703;DHT22;45570;48.782;8.332;2023-04-16T15:58:24;9.50;99.90
59703;DHT22;45570;48.782;8.332;2023-04-16T16:00:55;9.50;99.90
59703;DHT22;45570;48.782;8.332;2023-04-16T16:03:24;9.50;99.90
59703;DHT22;45570;48.782;8.332;2023-04-16T16:05:54;9.40;99.90
59703;DHT22;45570;48.782;8.332;2023-04-16T16:08:26;9.40;99.90
59703;DHT22;45570;48.782;8.332;2023-04-16T16:11:00;9.40;99.90
59703;DHT22;45570;48.782;8.332;2023-04-16T16:13:30;9.40;99.90
59703;DHT22;45570;48.782;8.332;2023-04-16T16:16:01;9.30;99.90
59703;DHT22;45570;48.782;8.332;2023-04-16T16:18:30;9.40;99.90
59703;DHT22;45570;48.782;8.332;2023-04-16T16:21:00;9.30;99.90
59703;DHT22;45570;48.782;8.332;2023-04-16T16:23:29;9.40;99.90
59703;DHT22;45570;48.782;8.332;2023-04-16T16:25:58;9.40;99.90
59703;DHT22;45570;48.782;8.332;2023-04-16T16:28:28;9.40;99.90
59703;DHT22;45570;48.782;8.332;2023-04-16T16:30:57;9.40;99.90
59703;DHT22;45570;48.782;8.332;2023-04-16T16:33:29;9.30;99.90
59703;DHT22;45570;48.782;8.332;2023-04-16T16:35:59;9.30;99.90
59703;DHT22;45570;48.782;8.332;2023-04-16T16:38:28;9.30;99.90
59703;DHT22;45570;48.782;8.332;2023-04-16T16:40:57;9.30;99.90
59703;DHT22;45570;48.782;8.332;2023-04-16T16:43:26;9.30;99.90
59703;DHT22;45570;48.782;8.332;2023-04-16T16:45:56;9.30;99.90
59703;DHT22;45570;48.782;8.332;2023-04-16T16:48:25;9.30;99.90
59703;DHT22;45570;48.782;8.332;2023-04-16T16:50:56;9.30;99.90
59703;DHT22;45570;48.782;8.332;2023-04-16T16:53:25;9.30;99.90
59703;DHT22;45570;48.782;8.332;2023-04-16T16:55:54;9.30;99.90
59703;DHT22;45570;48.782;8.332;2023-04-16T16:58:23;9.40;99.90
59703;DHT22;45570;48.782;8.332;2023-04-16T17:00:54;9.30;99.90
59703;DHT22;45570;48.782;8.332;2023-04-16T17:03:24;9.30;99.90
59703;DHT22;45570;48.782;8.332;2023-04-16T17:05:54;9.30;99.90
59703;DHT22;45570;48.782;8.332;2023-04-16T17:08:24;9.30;99.90
59703;DHT22;45570;48.782;8.332;2023-04-16T17:10:53;9.30;99.90
59703;DHT22;45570;48.782;8.332;2023-04-16T17:13:23;9.30;99.90
59703;DHT22;45570;48.782;8.332;2023-04-16T17:15:52;9.30;99.90
59703;DHT22;45570;48.782;8.332;2023-04-16T17:18:21;9.30;99.90
59703;DHT22;45570;48.782;8.332;2023-04-16T17:20:50;9.30;99.90
59703;DHT22;45570;48.782;8.332;2023-04-16T17:23:21;9.30;99.90
59703;DHT22;45570;48.782;8.332;2023-04-16T17:25:50;9.30;99.90
59703;DHT22;45570;48.782;8.332;2023-04-16T17:28:20;9.30;99.90
59703;DHT22;45570;48.782;8.332;2023-04-16T17:30:50;9.20;99.90
59703;DHT22;45570;48.782;8.332;2023-04-16T17:33:20;9.20;99.90
59703;DHT22;45570;48.782;8.332;2023-04-16T17:35:49;9.20;99.90
59703;DHT22;45570;48.782;8.332;2023-04-16T17:38:18;9.20;99.90
59703;DHT22;45570;48.782;8.332;2023-04-16T17:40:49;9.20;99.90
59703;DHT22;45570;48.782;8.332;2023-04-16T17:43:18;9.20;99.90
59703;DHT22;45570;48.782;8.332;2023-04-16T17:45:48;9.20;99.90
59703;DHT22;45570;48.782;8.332;2023-04-16T17:48:17;9.20;99.90
59703;DHT22;45570;48.782;8.332;2023-04-16T17:50:47;9.20;99.90
59703;DHT22;45570;48.782;8.332;2023-04-16T17:53:16;9.20;99.90
59703;DHT22;45570;48.782;8.332;2023-04-16T17:55:50;9.20;99.90
59703;DHT22;45570;48.782;8.332;2023-04-16T17:58:23;9.20;99.90
59703;DHT22;45570;48.782;8.332;2023-04-16T18:00:53;9.20;99.90
59703;DHT22;45570;48.782;8.332;2023-04-16T18:03:22;9.20;99.90
59703;DHT22;45570;48.782;8.332;2023-04-16T18:05:52;9.20;99.90
59703;DHT22;45570;48.782;8.332;2023-04-16T18:08:22;9.20;99.90
59703;DHT22;45570;48.782;8.332;2023-04-16T18:10:53;9.20;99.90
59703;DHT22;45570;48.782;8.332;2023-04-16T18:13:24;9.20;99.90
59703;DHT22;45570;48.782;8.332;2023-04-16T18:15:55;9.20;99.90
59703;DHT22;45570;48.782;8.332;2023-04-16T18:18:24;9.20;99.90
59703;DHT22;45570;48.782;8.332;2023-04-16T18:20:55;9.20;99.90
59703;DHT22;45570;48.782;8.332;2023-04-16T18:23:24;9.20;99.90
59703;DHT22;45570;48.782;8.332;2023-04-16T18:25:55;9.30;99.90
59703;DHT22;45570;48.782;8.332;2023-04-16T18:28:25;9.30;99.90
59703;DHT22;45570;48.782;8.332;2023-04-16T18:30:55;9.20;99.90
59703;DHT22;45570;48.782;8.332;2023-04-16T18:33:25;9.20;99.90
59703;DHT22;45570;48.782;8.332;2023-04-16T18:36:15;9.20;99.90
59703;DHT22;45570;48.782;8.332;2023-04-16T18:38:44;9.10;99.90
59703;DHT22;45570;48.782;8.332;2023-04-16T18:41:29;9.10;99.90
59703;DHT22;45570;48.782;8.332;2023-04-16T18:43:58;9.10;99.90
59703;DHT22;45570;48.782;8.332;2023-04-16T18:46:28;9.10;99.90
59703;DHT22;45570;48.782;8.332;2023-04-16T18:48:58;9.10;99.90
59703;DHT22;45570;48.782;8.332;2023-04-16T18:51:27;9.10;99.90
59703;DHT22;45570;48.782;8.332;2023-04-16T18:53:57;9.10;99.90
59703;DHT22;45570;48.782;8.332;2023-04-16T18:56:29;9.20;99.90
59703;DHT22;45570;48.782;8.332;2023-04-16T18:58:59;9.30;99.90
59703;DHT22;45570;48.782;8.332;2023-04-16T19:01:28;9.30;99.90
59703;DHT22;45570;48.782;8.332;2023-04-16T19:03:58;9.20;99.90
59703;DHT22;45570;48.782;8.332;2023-04-16T19:06:28;9.30;99.90
59703;DHT22;45570;48.782;8.332;2023-04-16T19:08:59;9.20;99.90
59703;DHT22;45570;48.782;8.332;2023-04-16T19:11:29;9.10;99.90
59703;DHT22;45570;48.782;8.332;2023-04-16T19:13:59;9.10;99.90
59703;DHT22;45570;48.782;8.332;2023-04-16T19:16:30;9.10;99.90
59703;DHT22;45570;48.782;8.332;2023-04-16T19:18:59;9.00;99.90
59703;DHT22;45570;48.782;8.332;2023-04-16T19:21:29;9.00;99.90
59703;DHT22;45570;48.782;8.332;2023-04-16T19:23:59;9.00;99.90
59703;DHT22;45570;48.782;8.332;2023-04-16T19:26:30;9.00;99.90
59703;DHT22;45570;48.782;8.332;2023-04-16T19:28:59;9.00;99.90
59703;DHT22;45570;48.782;8.332;2023-04-16T19:31:28;9.00;99.90
59703;DHT22;45570;48.782;8.332;2023-04-16T19:33:58;9.00;99.90
59703;DHT22;45570;48.782;8.332;2023-04-16T19:36:27;9.00;99.90
59703;DHT22;45570;48.782;8.332;2023-04-16T19:38:56;9.00;99.90
59703;DHT22;45570;48.782;8.332;2023-04-16T19:41:25;9.10;99.90
59703;DHT22;45570;48.782;8.332;2023-04-16T19:43:56;9.10;99.90
59703;DHT22;45570;48.782;8.332;2023-04-16T19:46:25;9.10;99.90
59703;DHT22;45570;48.782;8.332;2023-04-16T19:48:54;9.10;99.90
59703;DHT22;45570;48.782;8.332;2023-04-16T19:51:24;9.10;99.90
59703;DHT22;45570;48.782;8.332;2023-04-16T19:53:53;9.00;99.90
59703;DHT22;45570;48.782;8.332;2023-04-16T19:56:25;8.90;99.90
59703;DHT22;45570;48.782;8.332;2023-04-16T19:58:56;8.90;99.90
59703;DHT22;45570;48.782;8.332;2023-04-16T20:01:25;8.90;99.90
59703;DHT22;45570;48.782;8.332;2023-04-16T20:03:54;8.90;99.90
59703;DHT22;45570;48.782;8.332;2023-04-16T20:06:23;8.90;99.90
59703;DHT22;45570;48.782;8.332;2023-04-16T20:08:53;8.90;99.90
59703;DHT22;45570;48.782;8.332;2023-04-16T20:11:23;8.90;99.90
59703;DHT22;45570;48.782;8.332;2023-04-16T20:13:53;9.00;99.90
59703;DHT22;45570;48.782;8.332;2023-04-16T20:16:24;9.00;99.90
59703;DHT22;45570;48.782;8.332;2023-04-16T20:18:53;9.00;99.90
59703;DHT22;45570;48.782;8.332;2023-04-16T20:21:23;9.00;99.90
59703;DHT22;45570;48.782;8.332;2023-04-16T20:23:52;9.00;99.90
59703;DHT22;45570;48.782;8.332;2023-04-16T20:26:22;9.00;99.90
59703;DHT22;45570;48.782;8.332;2023-04-16T20:28:54;9.10;99.90
59703;DHT22;45570;48.782;8.332;2023-04-16T20:31:25;9.00;99.90
59703;DHT22;45570;48.782;8.332;2023-04-16T20:33:54;9.00;99.90
59703;DHT22;45570;48.782;8.332;2023-04-16T20:36:23;9.00;99.90
59703;DHT22;45570;48.782;8.332;2023-04-16T20:38:54;9.00;99.90
59703;DHT22;45570;48.782;8.332;2023-04-16T20:41:23;8.90;99.90
59703;DHT22;45570;48.782;8.332;2023-04-16T20:43:53;8.90;99.90
59703;DHT22;45570;48.782;8.332;2023-04-16T20:46:22;8.90;99.90
59703;DHT22;45570;48.782;8.332;2023-04-16T20:48:58;8.90;99.90
59703;DHT22;45570;48.782;8.332;2023-04-16T20:51:27;8.90;99.90
59703;DHT22;45570;48.782;8.332;2023-04-16T20:53:58;8.90;99.90
59703;DHT22;45570;48.782;8.332;2023-04-16T20:56:27;8.90;99.90
59703;DHT22;45570;48.782;8.332;2023-04-16T20:58:56;8.80;99.90
